Time;durP1;ratioP1;P1;durP2;ratioP2;P2;SDS_P1;SDS_P2;PMS_P1;PMS_P2;Temp;Humidity;BMP_temperature;BMP_pressure;BME280_temperature;BME280_humidity;BME280_pressure;Samples;Min_cycle;Max_cycle;Signal;HPM_P1;HPM_P2
2021/03/25 00:01:40;;;;;;;2.67;2.27;;;22.40;26.20;;;;;;5056746;28;20204;-64
2021/03/25 00:04:06;;;;;;;3.53;2.23;;;22.40;26.20;;;;;;5052366;28;20200;-64
2021/03/25 00:06:32;;;;;;;2.43;2.20;;;22.40;26.80;;;;;;5055036;28;20227;-64
2021/03/25 00:08:58;;;;;;;2.30;1.83;;;22.40;26.20;;;;;;5069429;28;20223;-64
2021/03/25 00:11:24;;;;;;;2.30;1.80;;;22.40;26.20;;;;;;5062632;28;20197;-65
2021/03/25 00:13:50;;;;;;;3.03;2.10;;;22.40;26.20;;;;;;5051887;28;20226;-64
2021/03/25 00:16:15;;;;;;;2.17;1.90;;;22.30;26.20;;;;;;5049310;28;20231;-64
2021/03/25 00:18:42;;;;;;;2.13;1.90;;;22.40;26.30;;;;;;5052096;28;20208;-65
2021/03/25 00:21:08;;;;;;;1.80;1.70;;;22.40;26.20;;;;;;5051632;28;20197;-64
2021/03/25 00:23:34;;;;;;;2.50;2.13;;;22.40;26.30;;;;;;5051957;28;20228;-64
2021/03/25 00:26:00;;;;;;;3.93;2.20;;;22.40;26.30;;;;;;5051045;28;20228;-64
2021/03/25 00:28:26;;;;;;;3.17;1.90;;;22.30;26.20;;;;;;5052243;28;20285;-65
2021/03/25 00:30:52;;;;;;;2.83;1.80;;;22.40;26.30;;;;;;5052044;28;20543;-64
2021/03/25 00:33:18;;;;;;;2.20;2.00;;;22.40;26.30;;;;;;5052963;28;20205;-64
2021/03/25 00:35:44;;;;;;;2.03;1.80;;;22.40;26.20;;;;;;5063867;28;20295;-64
2021/03/25 00:38:10;;;;;;;2.40;2.20;;;22.40;26.30;;;;;;5052411;28;20571;-65
2021/03/25 00:40:36;;;;;;;1.97;1.77;;;22.40;26.20;;;;;;5052526;28;20204;-65
2021/03/25 00:43:02;;;;;;;2.23;2.03;;;22.40;26.30;;;;;;5061827;28;20199;-65
2021/03/25 00:45:28;;;;;;;1.87;1.67;;;22.30;26.20;;;;;;5053033;28;20225;-65
2021/03/25 00:47:54;;;;;;;2.00;1.80;;;22.40;26.30;;;;;;5055842;28;20204;-65
2021/03/25 00:50:20;;;;;;;2.90;2.07;;;22.30;26.30;;;;;;5048229;28;20204;-64
2021/03/25 00:52:46;;;;;;;2.00;1.70;;;22.40;26.30;;;;;;5059562;28;20230;-64
2021/03/25 00:55:12;;;;;;;1.90;1.80;;;22.30;26.30;;;;;;5061045;28;20324;-64
2021/03/25 00:57:38;;;;;;;1.77;1.67;;;22.30;26.20;;;;;;5051686;28;20207;-64
2021/03/25 01:00:04;;;;;;;2.03;1.83;;;22.30;26.30;;;;;;5060554;28;20210;-64
2021/03/25 01:02:30;;;;;;;1.80;1.70;;;22.30;26.30;;;;;;5070526;28;20198;-64
2021/03/25 01:04:56;;;;;;;2.10;1.90;;;22.40;26.30;;;;;;5054461;28;20743;-64
2021/03/25 01:07:22;;;;;;;1.80;1.70;;;22.40;26.30;;;;;;5056271;28;20276;-64
2021/03/25 01:09:48;;;;;;;1.87;1.60;;;22.30;26.30;;;;;;5052299;28;20716;-64
2021/03/25 01:12:14;;;;;;;1.80;1.57;;;22.30;26.30;;;;;;5047222;28;20203;-64
2021/03/25 01:14:40;;;;;;;1.80;1.70;;;22.30;26.30;;;;;;5050927;28;20562;-64
2021/03/25 01:17:05;;;;;;;2.03;1.90;;;22.30;26.30;;;;;;5052792;28;20208;-64
2021/03/25 01:19:31;;;;;;;1.67;1.57;;;22.30;26.30;;;;;;5052921;28;20615;-64
2021/03/25 01:21:58;;;;;;;1.67;1.57;;;22.30;26.30;;;;;;5049878;28;20200;-64
2021/03/25 01:24:24;;;;;;;2.83;2.10;;;22.30;26.30;;;;;;5051386;28;20299;-64
2021/03/25 01:26:49;;;;;;;1.87;1.70;;;22.30;26.30;;;;;;5050627;28;20215;-64
2021/03/25 01:29:16;;;;;;;2.10;1.70;;;22.30;26.30;;;;;;5064286;28;20239;-64
2021/03/25 01:31:41;;;;;;;1.90;1.70;;;22.30;26.30;;;;;;5048247;28;20663;-64
2021/03/25 01:34:07;;;;;;;2.00;1.77;;;22.30;26.30;;;;;;5057988;28;20246;-64
2021/03/25 01:36:33;;;;;;;1.70;1.60;;;22.30;26.30;;;;;;5056251;28;20226;-64
2021/03/25 01:38:59;;;;;;;3.07;2.00;;;22.30;26.30;;;;;;5050935;28;20207;-64
2021/03/25 01:41:25;;;;;;;1.93;1.73;;;22.30;26.30;;;;;;5049949;28;20195;-65
2021/03/25 01:43:51;;;;;;;1.97;1.60;;;22.30;26.30;;;;;;5053942;28;20666;-64
2021/03/25 01:46:17;;;;;;;2.83;1.90;;;22.30;26.30;;;;;;5054261;28;20225;-64
2021/03/25 01:48:43;;;;;;;1.70;1.60;;;22.30;26.30;;;;;;5056119;28;20698;-64
2021/03/25 01:51:09;;;;;;;3.10;1.60;;;22.30;26.30;;;;;;5040448;28;20204;-65
2021/03/25 01:53:35;;;;;;;1.77;1.63;;;22.30;26.30;;;;;;5050104;28;20616;-65
2021/03/25 01:56:01;;;;;;;1.77;1.67;;;22.30;26.30;;;;;;5061558;28;20224;-64
2021/03/25 01:58:27;;;;;;;1.63;1.53;;;22.30;26.30;;;;;;5054294;28;20223;-64
2021/03/25 02:00:53;;;;;;;2.50;1.67;;;22.30;26.30;;;;;;5050928;28;20211;-65
2021/03/25 02:03:19;;;;;;;1.80;1.70;;;22.30;26.30;;;;;;5050143;28;20201;-64
2021/03/25 02:05:45;;;;;;;2.03;1.60;;;22.30;26.30;;;;;;5050100;28;20591;-64
2021/03/25 02:08:11;;;;;;;2.03;1.63;;;22.30;26.30;;;;;;5051314;28;20195;-64
2021/03/25 02:10:37;;;;;;;1.60;1.50;;;22.30;26.30;;;;;;5051152;28;20204;-65
2021/03/25 02:13:03;;;;;;;1.93;1.60;;;22.30;26.30;;;;;;5049306;28;20686;-65
2021/03/25 02:15:29;;;;;;;2.00;1.80;;;22.30;26.20;;;;;;5050498;28;20225;-64
2021/03/25 02:17:55;;;;;;;1.70;1.60;;;22.30;26.20;;;;;;5062753;28;20198;-65
2021/03/25 02:20:23;;;;;;;2.03;1.83;;;22.30;26.30;;;;;;5052142;28;20242;-64
2021/03/25 02:22:49;;;;;;;1.80;1.60;;;22.30;26.30;;;;;;5057231;28;20219;-64
2021/03/25 02:25:15;;;;;;;1.63;1.47;;;22.30;26.30;;;;;;5050357;28;20589;-65
2021/03/25 02:27:41;;;;;;;2.27;1.97;;;22.30;26.30;;;;;;5057756;28;20205;-66
2021/03/25 02:30:07;;;;;;;2.70;1.70;;;22.30;26.30;;;;;;5049777;28;20288;-66
2021/03/25 02:32:33;;;;;;;2.13;1.63;;;22.30;26.30;;;;;;5061219;28;20206;-65
2021/03/25 02:34:59;;;;;;;1.70;1.60;;;22.30;26.30;;;;;;5049672;28;20219;-66
2021/03/25 02:37:25;;;;;;;1.73;1.50;;;22.30;26.30;;;;;;5048803;28;20569;-65
2021/03/25 02:39:51;;;;;;;1.70;1.60;;;22.30;26.30;;;;;;5050105;28;20200;-64
2021/03/25 02:42:17;;;;;;;2.70;1.63;;;22.30;26.30;;;;;;5061881;28;20210;-65
2021/03/25 02:44:43;;;;;;;1.63;1.53;;;22.30;26.30;;;;;;5061217;28;20252;-65
2021/03/25 02:47:09;;;;;;;1.73;1.60;;;22.30;26.30;;;;;;5052932;28;20204;-65
2021/03/25 02:49:35;;;;;;;1.90;1.80;;;22.30;26.30;;;;;;5049954;28;20720;-65
2021/03/25 02:52:01;;;;;;;1.63;1.50;;;22.30;26.30;;;;;;5041304;28;20203;-64
2021/03/25 02:54:27;;;;;;;2.10;1.60;;;22.30;26.30;;;;;;5030020;28;20235;-64
2021/03/25 02:56:52;;;;;;;1.60;1.50;;;22.30;26.30;;;;;;5041247;28;20272;-64
2021/03/25 02:59:18;;;;;;;1.50;1.40;;;22.30;26.30;;;;;;5063092;28;20210;-64
2021/03/25 03:01:45;;;;;;;1.60;1.50;;;22.30;26.30;;;;;;5053304;28;20246;-64
2021/03/25 03:04:10;;;;;;;1.47;1.37;;;22.30;26.30;;;;;;5048518;28;20281;-64
2021/03/25 03:06:36;;;;;;;1.70;1.60;;;22.30;26.40;;;;;;5051740;28;20753;-65
2021/03/25 03:09:02;;;;;;;1.60;1.43;;;22.30;26.90;;;;;;5050762;28;20235;-64
2021/03/25 03:11:28;;;;;;;2.33;1.60;;;22.30;26.30;;;;;;5050356;28;20245;-64
2021/03/25 03:13:54;;;;;;;1.50;1.40;;;22.30;26.30;;;;;;5068466;28;20204;-64
2021/03/25 03:16:20;;;;;;;1.50;1.40;;;22.30;26.90;;;;;;5061847;28;20202;-64
2021/03/25 03:18:46;;;;;;;1.80;1.70;;;22.30;26.30;;;;;;5049515;28;20544;-63
2021/03/25 03:21:12;;;;;;;1.67;1.57;;;22.30;26.30;;;;;;5052024;28;20214;-64
2021/03/25 03:23:38;;;;;;;2.63;1.70;;;22.30;26.30;;;;;;5049362;28;20215;-65
2021/03/25 03:26:04;;;;;;;1.57;1.47;;;22.30;26.30;;;;;;5049813;28;20234;-64
2021/03/25 03:28:30;;;;;;;1.50;1.40;;;22.30;26.30;;;;;;5048897;28;20239;-65
2021/03/25 03:30:56;;;;;;;1.70;1.60;;;22.30;26.30;;;;;;5049804;28;20260;-64
2021/03/25 03:33:22;;;;;;;1.50;1.40;;;22.30;26.40;;;;;;5049900;28;20203;-64
2021/03/25 03:35:48;;;;;;;1.50;1.40;;;22.30;26.40;;;;;;5047543;28;20227;-65
2021/03/25 03:38:14;;;;;;;1.50;1.40;;;22.30;26.40;;;;;;5047400;28;20210;-64
2021/03/25 03:40:40;;;;;;;1.70;1.60;;;22.30;26.40;;;;;;5049501;28;20642;-64
2021/03/25 03:43:06;;;;;;;1.40;1.30;;;22.30;26.40;;;;;;5054616;28;20267;-64
2021/03/25 03:45:32;;;;;;;1.43;1.33;;;22.30;26.40;;;;;;5049055;28;20691;-65
2021/03/25 03:47:58;;;;;;;1.60;1.50;;;22.30;26.40;;;;;;5059111;28;20214;-65
2021/03/25 03:50:24;;;;;;;1.60;1.50;;;22.30;26.40;;;;;;5049204;28;20232;-64
2021/03/25 03:52:50;;;;;;;1.60;1.50;;;22.30;26.40;;;;;;5046751;28;20201;-64
2021/03/25 03:55:16;;;;;;;1.50;1.40;;;22.30;26.40;;;;;;5047969;28;20268;-64
2021/03/25 03:57:42;;;;;;;1.67;1.50;;;22.30;26.40;;;;;;5059951;28;20204;-64
2021/03/25 04:00:08;;;;;;;1.67;1.57;;;22.30;26.40;;;;;;5053700;28;20203;-64
2021/03/25 04:02:35;;;;;;;1.73;1.50;;;22.30;26.40;;;;;;5060113;28;20312;-65
2021/03/25 04:05:01;;;;;;;1.60;1.50;;;22.30;26.40;;;;;;5058187;28;20217;-64
2021/03/25 04:07:27;;;;;;;1.50;1.40;;;22.30;26.40;;;;;;5055492;28;20747;-64
2021/03/25 04:09:53;;;;;;;1.83;1.50;;;22.20;26.40;;;;;;5048956;28;20231;-64
2021/03/25 04:12:19;;;;;;;1.40;1.30;;;22.30;26.50;;;;;;5059350;28;20285;-64
2021/03/25 04:14:45;;;;;;;1.60;1.50;;;22.30;26.40;;;;;;5049492;28;20228;-64
2021/03/25 04:17:11;;;;;;;1.97;1.40;;;22.30;26.40;;;;;;5060495;28;20235;-64
2021/03/25 04:19:37;;;;;;;1.77;1.57;;;22.20;26.40;;;;;;5059864;28;20203;-64
2021/03/25 04:22:03;;;;;;;1.67;1.57;;;22.20;26.40;;;;;;5052685;28;20207;-64
2021/03/25 04:24:29;;;;;;;2.23;1.50;;;22.20;26.40;;;;;;5052836;28;20230;-64
2021/03/25 04:26:55;;;;;;;1.80;1.50;;;22.30;26.50;;;;;;5050310;28;20214;-64
2021/03/25 04:29:21;;;;;;;1.63;1.40;;;22.20;26.40;;;;;;5052600;28;20224;-64
2021/03/25 04:31:47;;;;;;;1.50;1.40;;;22.30;26.50;;;;;;5051868;28;20207;-65
2021/03/25 04:34:13;;;;;;;1.60;1.50;;;22.20;26.40;;;;;;5051324;28;20219;-64
2021/03/25 04:36:39;;;;;;;1.50;1.40;;;22.30;26.50;;;;;;5051804;28;20206;-64
2021/03/25 04:39:05;;;;;;;2.50;1.50;;;22.20;26.40;;;;;;5070663;28;20207;-64
2021/03/25 04:41:31;;;;;;;1.60;1.50;;;22.20;26.40;;;;;;5054050;28;20288;-66
2021/03/25 04:43:57;;;;;;;1.40;1.30;;;22.30;26.50;;;;;;5056198;28;20202;-64
2021/03/25 04:46:23;;;;;;;1.60;1.50;;;22.20;26.40;;;;;;5051764;28;20207;-65
2021/03/25 04:48:49;;;;;;;1.10;1.10;;;22.20;26.40;;;;;;5055468;28;20233;-64
2021/03/25 04:51:15;;;;;;;1.50;1.40;;;22.20;26.40;;;;;;5051235;28;20201;-64
2021/03/25 04:53:41;;;;;;;1.30;1.20;;;22.20;26.40;;;;;;5055165;28;20274;-64
2021/03/25 04:56:07;;;;;;;1.40;1.30;;;22.30;26.50;;;;;;5060491;28;20263;-64
2021/03/25 04:58:33;;;;;;;1.50;1.40;;;22.20;26.50;;;;;;5065636;28;20658;-64
2021/03/25 05:00:59;;;;;;;1.60;1.50;;;22.20;26.50;;;;;;5061333;28;20194;-65
2021/03/25 05:03:25;;;;;;;1.70;1.50;;;22.20;26.40;;;;;;5051378;28;20305;-63
2021/03/25 05:05:51;;;;;;;1.70;1.33;;;22.20;26.60;;;;;;5052207;28;20226;-63
2021/03/25 05:08:17;;;;;;;1.43;1.30;;;22.20;27.00;;;;;;5061801;28;20203;-63
2021/03/25 05:10:43;;;;;;;1.97;1.43;;;22.20;26.70;;;;;;5053225;28;20223;-63
2021/03/25 05:13:09;;;;;;;1.93;1.30;;;22.20;26.70;;;;;;5060359;28;20206;-63
2021/03/25 05:15:35;;;;;;;1.57;1.43;;;22.20;27.20;;;;;;5050901;28;20226;-63
2021/03/25 05:18:01;;;;;;;1.70;1.50;;;22.20;26.70;;;;;;5049826;28;20198;-63
2021/03/25 05:20:27;;;;;;;1.23;1.13;;;22.20;26.70;;;;;;5049462;28;20209;-64
2021/03/25 05:22:53;;;;;;;1.47;1.37;;;22.20;26.60;;;;;;5056949;28;20259;-63
2021/03/25 05:25:19;;;;;;;1.70;1.30;;;22.20;26.60;;;;;;5068236;28;20218;-63
2021/03/25 05:27:45;;;;;;;1.93;1.43;;;22.20;26.60;;;;;;5054785;28;20210;-63
2021/03/25 05:30:11;;;;;;;1.50;1.40;;;22.20;26.60;;;;;;5057985;28;20656;-63
2021/03/25 05:32:37;;;;;;;1.53;1.37;;;22.20;26.60;;;;;;5053880;28;20205;-63
2021/03/25 05:35:03;;;;;;;2.03;1.27;;;22.20;26.60;;;;;;5070436;28;20291;-63
2021/03/25 05:37:29;;;;;;;1.87;1.37;;;22.20;26.60;;;;;;5049391;28;20234;-63
2021/03/25 05:39:55;;;;;;;1.73;1.30;;;22.20;26.60;;;;;;5064325;28;20222;-63
2021/03/25 05:42:21;;;;;;;2.23;1.50;;;22.20;26.60;;;;;;5050673;28;20205;-64
2021/03/25 05:44:47;;;;;;;1.40;1.30;;;22.20;26.60;;;;;;5067521;28;20230;-63
2021/03/25 05:47:13;;;;;;;3.37;1.40;;;22.20;26.90;;;;;;5052170;28;20673;-64
2021/03/25 05:49:38;;;;;;;6.23;1.63;;;22.20;27.50;;;;;;5063291;28;20259;-65
2021/03/25 05:52:04;;;;;;;4.30;1.20;;;22.20;27.50;;;;;;5048546;28;20207;-63
2021/03/25 05:54:30;;;;;;;2.43;1.80;;;22.20;27.50;;;;;;5050957;28;20233;-63
2021/03/25 05:56:56;;;;;;;3.10;1.60;;;22.20;27.50;;;;;;5050643;28;20202;-63
2021/03/25 05:59:22;;;;;;;2.90;1.47;;;22.20;27.80;;;;;;5051322;28;20206;-63
2021/03/25 06:01:49;;;;;;;2.87;1.53;;;22.20;28.00;;;;;;5051430;28;20659;-64
2021/03/25 06:04:15;;;;;;;1.67;1.40;;;22.20;28.00;;;;;;5046531;28;20318;-63
2021/03/25 06:06:41;;;;;;;2.73;1.50;;;22.20;28.00;;;;;;5047836;28;20196;-63
2021/03/25 06:09:06;;;;;;;4.53;1.50;;;22.20;28.20;;;;;;5042892;28;20685;-63
2021/03/25 06:11:32;;;;;;;8.50;1.50;;;22.20;28.20;;;;;;5057919;28;20269;-64
2021/03/25 06:13:58;;;;;;;2.33;1.60;;;22.30;28.20;;;;;;5060119;28;20592;-61
2021/03/25 06:16:24;;;;;;;4.50;1.60;;;22.30;28.40;;;;;;5051954;28;20216;-62
2021/03/25 06:18:50;;;;;;;6.30;1.60;;;22.40;28.00;;;;;;5061890;28;20205;-67
2021/03/25 06:21:16;;;;;;;8.77;1.50;;;22.40;28.40;;;;;;5062898;28;20199;-63
2021/03/25 06:23:42;;;;;;;3.37;1.40;;;22.30;28.90;;;;;;5053532;28;20273;-60
2021/03/25 06:26:08;;;;;;;3.33;1.60;;;22.30;29.70;;;;;;5052760;28;20258;-61
2021/03/25 06:28:34;;;;;;;5.20;1.80;;;22.30;29.70;;;;;;5049696;28;20289;-61
2021/03/25 06:31:00;;;;;;;2.93;1.70;;;22.30;29.70;;;;;;5052737;28;20194;-62
2021/03/25 06:33:26;;;;;;;7.13;2.10;;;22.20;29.70;;;;;;5050586;28;20211;-61
2021/03/25 06:35:52;;;;;;;6.37;2.00;;;22.30;30.00;;;;;;5056594;28;20487;-60
2021/03/25 06:38:18;;;;;;;6.87;2.37;;;22.30;32.90;;;;;;5049709;28;20201;-59
2021/03/25 06:40:44;;;;;;;5.57;1.90;;;22.20;32.60;;;;;;5062169;28;20667;-61
2021/03/25 06:43:10;;;;;;;3.93;2.10;;;22.20;32.70;;;;;;5061027;28;20190;-56
2021/03/25 06:45:36;;;;;;;6.03;2.50;;;22.20;32.90;;;;;;5058028;28;20233;-57
2021/03/25 06:48:02;;;;;;;5.53;2.17;;;22.20;32.80;;;;;;5058765;28;20415;-59
2021/03/25 06:50:28;;;;;;;5.83;2.43;;;22.20;33.50;;;;;;5070450;28;20226;-61
2021/03/25 06:52:54;;;;;;;7.87;2.77;;;22.10;31.50;;;;;;5051235;28;20210;-63
2021/03/25 06:55:20;;;;;;;5.23;2.87;;;21.00;28.40;;;;;;5045394;28;20227;-64
2021/03/25 06:57:46;;;;;;;3.30;2.00;;;20.50;27.10;;;;;;5054911;28;20265;-64
2021/03/25 07:00:12;;;;;;;4.70;2.33;;;20.90;28.20;;;;;;5049945;28;20202;-64
2021/03/25 07:02:38;;;;;;;4.07;1.93;;;21.20;29.10;;;;;;5049698;28;20220;-63
2021/03/25 07:05:04;;;;;;;5.97;2.07;;;21.50;30.30;;;;;;5056164;28;20220;-63
2021/03/25 07:07:30;;;;;;;3.37;1.93;;;21.60;31.00;;;;;;5061389;28;20205;-63
2021/03/25 07:09:56;;;;;;;4.07;2.00;;;21.70;31.20;;;;;;5049154;28;20227;-65
2021/03/25 07:12:22;;;;;;;6.90;1.80;;;21.80;32.10;;;;;;5051366;28;20575;-63
2021/03/25 07:14:48;;;;;;;3.00;1.73;;;21.80;31.90;;;;;;5055402;28;20214;-63
2021/03/25 07:17:14;;;;;;;2.10;1.73;;;21.80;32.40;;;;;;5052075;28;20226;-64
2021/03/25 07:19:40;;;;;;;3.17;1.80;;;21.90;31.60;;;;;;5047221;28;20234;-60
2021/03/25 07:22:06;;;;;;;5.40;1.80;;;21.90;31.40;;;;;;5058322;28;20252;-55
2021/03/25 07:24:34;;;;;;;2.93;1.80;;;22.00;32.60;;;;;;5050429;28;20239;-61
2021/03/25 07:27:00;;;;;;;3.17;1.50;;;22.10;32.50;;;;;;5049028;28;20226;-61
2021/03/25 07:29:26;;;;;;;3.67;1.70;;;22.10;32.60;;;;;;5056193;28;20714;-61
2021/03/25 07:31:52;;;;;;;3.33;1.60;;;22.10;33.00;;;;;;5051895;28;20622;-60
2021/03/25 07:34:18;;;;;;;3.10;1.90;;;22.10;33.10;;;;;;5059608;28;20223;-61
2021/03/25 07:36:44;;;;;;;4.47;1.83;;;22.20;31.60;;;;;;5048184;28;20211;-61
2021/03/25 07:39:10;;;;;;;3.17;1.83;;;22.10;30.10;;;;;;5058932;28;20206;-63
2021/03/25 07:41:36;;;;;;;2.80;1.67;;;22.10;29.50;;;;;;5056174;28;20197;-63
2021/03/25 07:44:02;;;;;;;4.20;1.80;;;22.20;29.20;;;;;;5047396;28;20230;-58
2021/03/25 07:46:28;;;;;;;3.97;1.67;;;22.20;29.10;;;;;;5052867;28;20207;-52
2021/03/25 07:48:54;;;;;;;6.20;2.17;;;22.20;29.80;;;;;;5060232;28;20226;-56
2021/03/25 07:51:20;;;;;;;2.83;1.60;;;22.30;30.10;;;;;;5055053;28;20212;-55
2021/03/25 07:53:46;;;;;;;2.40;1.90;;;22.30;30.40;;;;;;5048198;28;20228;-58
2021/03/25 07:56:12;;;;;;;2.70;1.80;;;22.30;30.60;;;;;;5057862;28;20324;-55
2021/03/25 07:58:38;;;;;;;2.03;1.40;;;22.30;30.80;;;;;;5053652;28;20678;-51
2021/03/25 08:01:04;;;;;;;4.80;2.00;;;22.30;30.80;;;;;;5055083;28;20220;-52
2021/03/25 08:03:30;;;;;;;2.57;1.80;;;22.20;29.70;;;;;;5070119;28;20572;-57
2021/03/25 08:05:56;;;;;;;2.40;1.80;;;22.30;30.00;;;;;;5064215;28;20209;-57
2021/03/25 08:08:22;;;;;;;2.17;1.83;;;22.30;30.50;;;;;;5057226;28;20216;-54
2021/03/25 08:10:48;;;;;;;2.63;1.60;;;22.30;30.90;;;;;;5061515;28;20242;-58
2021/03/25 08:13:14;;;;;;;4.17;1.87;;;22.30;31.00;;;;;;5053655;28;20219;-59
2021/03/25 08:15:40;;;;;;;1.77;1.60;;;22.30;29.90;;;;;;5050166;28;20200;-57
2021/03/25 08:18:06;;;;;;;2.97;1.53;;;22.40;29.50;;;;;;5049414;28;20200;-58
2021/03/25 08:20:32;;;;;;;4.00;1.77;;;22.40;29.30;;;;;;5060088;28;20933;-64
2021/03/25 08:22:58;;;;;;;2.00;1.50;;;22.40;28.90;;;;;;5053186;28;20230;-61
2021/03/25 08:25:24;;;;;;;2.97;2.20;;;22.50;29.30;;;;;;5040120;28;20214;-62
2021/03/25 08:27:50;;;;;;;2.57;1.60;;;22.40;29.00;;;;;;5045276;28;20201;-63
2021/03/25 08:30:16;;;;;;;3.80;1.87;;;22.30;27.70;;;;;;5052445;28;20231;-61
2021/03/25 08:32:42;;;;;;;6.13;2.97;;;22.30;27.60;;;;;;5048805;28;20490;-60
2021/03/25 08:35:08;;;;;;;6.43;2.83;;;22.20;25.30;;;;;;5052661;28;20541;-64
2021/03/25 08:37:34;;;;;;;6.67;2.23;;;22.20;27.10;;;;;;5055816;28;20208;-55
2021/03/25 08:40:00;;;;;;;4.77;2.17;;;22.30;27.60;;;;;;5066584;28;20203;-56
2021/03/25 08:42:26;;;;;;;3.27;2.00;;;22.30;27.80;;;;;;5065282;28;20670;-55
2021/03/25 08:44:52;;;;;;;3.80;2.80;;;22.30;28.10;;;;;;5052786;28;20269;-55
2021/03/25 08:47:18;;;;;;;4.47;2.70;;;22.20;26.00;;;;;;5053211;28;20200;-54
2021/03/25 08:49:44;;;;;;;4.73;3.23;;;22.20;26.50;;;;;;5049146;28;20225;-66
2021/03/25 08:52:10;;;;;;;4.90;3.37;;;22.20;24.60;;;;;;5054650;28;20225;-63
2021/03/25 08:54:36;;;;;;;5.90;3.07;;;22.20;24.40;;;;;;5051795;28;20231;-61
2021/03/25 08:57:02;;;;;;;3.97;3.40;;;22.10;24.10;;;;;;5049492;28;20238;-61
2021/03/25 08:59:28;;;;;;;4.57;3.87;;;22.10;23.70;;;;;;5057082;28;20539;-64
2021/03/25 09:01:54;;;;;;;4.50;3.60;;;22.10;23.50;;;;;;5062226;28;20207;-68
2021/03/25 09:04:20;;;;;;;5.40;3.70;;;22.10;23.00;;;;;;5058872;28;20254;-58
2021/03/25 09:06:46;;;;;;;4.27;3.47;;;22.10;22.10;;;;;;5061849;28;20201;-58
2021/03/25 09:09:12;;;;;;;6.00;3.20;;;22.10;22.50;;;;;;5065157;28;20640;-60
2021/03/25 09:11:38;;;;;;;4.47;3.17;;;22.10;22.60;;;;;;5061093;28;20204;-60
2021/03/25 09:14:04;;;;;;;4.73;3.43;;;22.20;22.90;;;;;;5057380;28;20223;-61
2021/03/25 09:16:30;;;;;;;5.00;3.17;;;22.20;23.00;;;;;;5056890;28;20219;-60
2021/03/25 09:18:56;;;;;;;4.43;2.70;;;22.10;22.90;;;;;;5047860;28;20359;-60
2021/03/25 09:21:23;;;;;;;4.47;2.73;;;22.10;23.30;;;;;;5036627;28;20203;-61
2021/03/25 09:23:49;;;;;;;3.27;2.80;;;22.10;23.30;;;;;;5056155;28;20596;-60
2021/03/25 09:26:15;;;;;;;5.53;3.20;;;22.10;22.80;;;;;;5060907;28;20326;-60
2021/03/25 09:28:40;;;;;;;4.00;2.90;;;22.10;22.60;;;;;;5056702;28;20203;-61
2021/03/25 09:31:06;;;;;;;4.73;3.13;;;22.10;23.10;;;;;;5051125;28;20211;-62
2021/03/25 09:33:32;;;;;;;3.73;2.80;;;22.10;21.90;;;;;;5050669;28;20296;-61
2021/03/25 09:35:58;;;;;;;5.20;3.37;;;22.10;22.50;;;;;;5057637;28;20198;-60
2021/03/25 09:38:25;;;;;;;4.87;3.63;;;22.10;22.10;;;;;;5054666;28;20651;-61
2021/03/25 09:40:51;;;;;;;3.23;2.70;;;22.10;22.20;;;;;;5055411;28;20203;-60
2021/03/25 09:43:17;;;;;;;4.23;3.40;;;22.10;22.50;;;;;;5049510;28;20255;-60
2021/03/25 09:45:43;;;;;;;4.30;3.83;;;22.10;21.70;;;;;;5050234;28;20222;-58
2021/03/25 09:48:09;;;;;;;5.87;4.60;;;22.10;21.00;;;;;;5051148;28;20564;-59
2021/03/25 09:50:35;;;;;;;6.57;4.83;;;22.00;20.40;;;;;;5049216;28;20268;-59
2021/03/25 09:53:01;;;;;;;5.37;4.70;;;21.90;20.30;;;;;;5049480;28;20219;-59
2021/03/25 09:55:28;;;;;;;6.33;4.53;;;22.00;20.40;;;;;;5066373;28;20213;-59
2021/03/25 09:57:54;;;;;;;5.53;4.50;;;22.00;20.60;;;;;;5051778;28;20204;-59
2021/03/25 10:00:20;;;;;;;7.73;4.33;;;22.00;20.60;;;;;;5049373;28;20200;-59
2021/03/25 10:02:48;;;;;;;5.17;3.87;;;22.10;20.90;;;;;;5044477;28;20223;-59
2021/03/25 10:05:14;;;;;;;6.07;4.13;;;22.10;20.80;;;;;;5049975;28;20214;-63
2021/03/25 10:07:40;;;;;;;4.87;4.17;;;22.20;20.80;;;;;;5050172;28;20629;-63
2021/03/25 10:10:06;;;;;;;5.83;4.53;;;22.10;20.10;;;;;;5049001;28;20660;-60
2021/03/25 10:12:32;;;;;;;7.90;4.87;;;22.20;19.60;;;;;;5046391;28;20230;-61
2021/03/25 10:14:58;;;;;;;5.50;4.87;;;22.10;19.50;;;;;;5049044;28;20202;-66
2021/03/25 10:17:24;;;;;;;5.53;4.67;;;22.10;19.60;;;;;;5049328;28;20286;-61
2021/03/25 10:19:50;;;;;;;7.57;4.63;;;22.10;19.50;;;;;;5052202;28;20211;-63
2021/03/25 10:22:16;;;;;;;7.97;4.77;;;22.10;19.20;;;;;;5048434;28;20792;-66
2021/03/25 10:24:42;;;;;;;5.83;4.50;;;22.10;19.30;;;;;;5046860;28;20214;-63
2021/03/25 10:27:08;;;;;;;5.77;5.03;;;22.10;19.50;;;;;;5050005;28;20216;-64
2021/03/25 10:29:34;;;;;;;6.20;4.33;;;22.10;19.60;;;;;;5048474;28;20713;-62
2021/03/25 10:32:00;;;;;;;5.63;4.47;;;22.20;19.40;;;;;;5053359;28;20211;-63
2021/03/25 10:34:26;;;;;;;6.17;4.83;;;22.20;19.30;;;;;;5049284;28;20207;-62
2021/03/25 10:36:52;;;;;;;4.87;4.33;;;22.20;19.10;;;;;;5048933;28;20268;-60
2021/03/25 10:39:18;;;;;;;6.07;4.27;;;22.20;19.40;;;;;;5049736;28;20594;-62
2021/03/25 10:41:44;;;;;;;5.80;4.93;;;22.20;19.20;;;;;;5051866;28;20210;-59
2021/03/25 10:44:10;;;;;;;4.43;4.03;;;22.20;19.20;;;;;;5052188;28;20222;-62
2021/03/25 10:46:37;;;;;;;6.47;4.90;;;22.30;19.10;;;;;;5044971;28;20751;-62
2021/03/25 10:49:03;;;;;;;5.00;4.27;;;22.30;19.20;;;;;;5051677;28;20254;-60
2021/03/25 10:54:00;;;;;;;7.00;4.30;;;22.30;19.70;;;;;;5046095;28;20311;-69
2021/03/25 10:56:26;;;;;;;6.57;4.73;;;22.30;19.50;;;;;;5047233;28;20208;-70
2021/03/25 10:58:53;;;;;;;4.73;3.77;;;22.30;19.50;;;;;;5045972;28;20228;-64
2021/03/25 11:01:19;;;;;;;5.13;3.83;;;22.30;19.70;;;;;;5042445;28;20205;-68
2021/03/25 11:03:45;;;;;;;4.10;3.40;;;22.30;19.70;;;;;;5047031;28;20273;-67
2021/03/25 11:06:11;;;;;;;4.47;3.60;;;22.30;19.70;;;;;;5043279;28;20212;-70
2021/03/25 11:08:37;;;;;;;4.50;4.00;;;22.30;19.70;;;;;;5048692;28;20209;-69
2021/03/25 11:11:03;;;;;;;5.97;4.30;;;22.30;19.60;;;;;;5042749;28;20211;-66
2021/03/25 11:13:29;;;;;;;5.60;4.00;;;22.30;19.60;;;;;;5041202;28;20215;-66
2021/03/25 11:15:55;;;;;;;4.30;3.73;;;22.30;19.60;;;;;;5044053;28;20221;-66
2021/03/25 11:18:21;;;;;;;5.03;3.70;;;22.30;19.60;;;;;;5045341;28;20205;-61
2021/03/25 11:20:47;;;;;;;6.00;4.50;;;22.30;19.70;;;;;;5049975;28;20240;-61
2021/03/25 11:23:13;;;;;;;6.43;4.43;;;22.30;19.40;;;;;;5046710;28;20293;-66
2021/03/25 11:25:39;;;;;;;5.50;4.20;;;22.30;19.20;;;;;;5038405;28;20588;-64
2021/03/25 11:28:05;;;;;;;5.97;4.40;;;22.30;19.10;;;;;;5041074;28;20252;-61
2021/03/25 11:30:31;;;;;;;6.67;3.63;;;22.30;18.90;;;;;;5045721;28;20667;-60
2021/03/25 11:32:57;;;;;;;4.73;3.97;;;22.30;18.90;;;;;;5043509;28;20225;-62
2021/03/25 11:35:23;;;;;;;6.00;4.00;;;22.30;19.20;;;;;;5043653;28;20211;-59
2021/03/25 11:37:49;;;;;;;4.50;3.70;;;22.30;19.90;;;;;;5041008;28;20275;-67
2021/03/25 11:40:15;;;;;;;5.20;3.80;;;22.40;19.70;;;;;;5048302;28;20259;-69
2021/03/25 11:42:41;;;;;;;4.93;4.27;;;22.40;19.70;;;;;;5053536;28;20282;-61
2021/03/25 11:45:07;;;;;;;5.70;4.60;;;22.40;19.20;;;;;;5049728;28;20209;-63
2021/03/25 11:47:33;;;;;;;4.83;4.17;;;22.30;18.60;;;;;;5054817;28;20209;-64
2021/03/25 11:49:59;;;;;;;4.30;3.80;;;22.40;19.00;;;;;;5056207;28;20733;-64
2021/03/25 11:52:25;;;;;;;4.53;3.77;;;22.30;19.30;;;;;;5051831;28;20231;-61
2021/03/25 11:54:51;;;;;;;4.23;3.63;;;22.30;19.40;;;;;;5042161;28;20209;-60
2021/03/25 11:57:17;;;;;;;5.80;3.60;;;22.30;19.10;;;;;;5043319;28;20208;-61
2021/03/25 11:59:43;;;;;;;4.93;3.90;;;22.30;19.10;;;;;;5047619;28;20211;-61
2021/03/25 12:02:09;;;;;;;4.87;4.00;;;22.30;19.70;;;;;;5051850;28;20224;-61
2021/03/25 12:04:35;;;;;;;4.40;3.60;;;22.30;19.50;;;;;;5051677;28;20209;-61
2021/03/25 12:07:01;;;;;;;4.27;3.73;;;22.30;19.70;;;;;;5052737;28;20647;-61
2021/03/25 12:09:27;;;;;;;4.00;3.43;;;22.30;19.70;;;;;;5051004;28;20223;-61
2021/03/25 12:11:53;;;;;;;5.33;3.83;;;22.40;19.70;;;;;;5051841;28;20219;-61
2021/03/25 12:14:19;;;;;;;4.70;3.73;;;22.30;19.10;;;;;;5049244;28;20211;-62
2021/03/25 12:16:45;;;;;;;5.73;4.10;;;22.20;19.00;;;;;;5043675;28;20250;-63
2021/03/25 12:19:11;;;;;;;5.50;3.30;;;22.20;18.90;;;;;;5038296;28;20595;-61
2021/03/25 12:21:37;;;;;;;5.83;4.03;;;22.20;18.60;;;;;;5053557;28;20233;-61
2021/03/25 12:24:03;;;;;;;3.97;3.30;;;22.20;18.80;;;;;;5050331;28;20199;-63
2021/03/25 12:26:29;;;;;;;5.47;4.20;;;22.20;19.20;;;;;;5049235;28;20199;-62
2021/03/25 12:28:55;;;;;;;5.73;4.00;;;22.20;18.80;;;;;;5053856;28;20302;-62
2021/03/25 12:31:21;;;;;;;5.83;4.07;;;22.10;18.60;;;;;;5053294;28;20224;-63
2021/03/25 12:33:47;;;;;;;4.70;3.87;;;22.00;19.00;;;;;;5046761;28;20207;-73
2021/03/25 12:36:13;;;;;;;3.77;3.37;;;22.10;19.00;;;;;;5035434;28;20610;-73
2021/03/25 12:38:39;;;;;;;3.13;2.63;;;22.20;19.70;;;;;;5048899;28;20216;-73
2021/03/25 12:41:05;;;;;;;3.10;2.80;;;22.30;19.70;;;;;;5045859;28;20645;-73
2021/03/25 12:43:31;;;;;;;4.30;3.13;;;22.30;19.90;;;;;;5043698;28;20230;-73